createdAt,value
2023-05-21T00:00:11.232Z,1.75
2023-05-21T00:02:38.412Z,1.85
2023-05-21T00:05:05.417Z,1.95
2023-05-21T00:07:33.218Z,1.60
2023-05-21T00:10:00.332Z,1.58
2023-05-21T00:12:26.972Z,2.75
2023-05-21T00:14:53.584Z,2.13
2023-05-21T00:17:20.197Z,1.60
2023-05-21T00:19:46.800Z,1.48
2023-05-21T00:22:14.296Z,2.95
2023-05-21T00:24:40.928Z,2.13
2023-05-21T00:27:07.498Z,2.45
2023-05-21T00:29:34.090Z,1.92
2023-05-21T00:32:01.126Z,2.55
2023-05-21T00:34:27.777Z,1.80
2023-05-21T00:36:55.584Z,1.95
2023-05-21T00:39:22.177Z,1.73
2023-05-21T00:41:50.547Z,2.50
2023-05-21T00:44:18.368Z,1.98
2023-05-21T00:46:45.298Z,2.00
2023-05-21T00:49:15.286Z,2.05
2023-05-21T00:51:41.877Z,2.63
2023-05-21T00:54:09.118Z,2.30
2023-05-21T00:56:35.954Z,1.63
2023-05-21T00:59:05.577Z,3.22
2023-05-21T01:01:38.851Z,2.22
2023-05-21T01:06:34.907Z,1.40
2023-05-21T01:09:05.193Z,3.67
2023-05-21T01:11:41.797Z,2.90
2023-05-21T01:14:12.694Z,1.92
2023-05-21T01:16:42.969Z,2.70
2023-05-21T01:19:12.548Z,1.95
2023-05-21T01:21:42.171Z,2.70
2023-05-21T01:24:08.761Z,2.03
2023-05-21T01:26:43.982Z,3.42
2023-05-21T01:29:13.295Z,1.58
2023-05-21T01:32:16.707Z,1.40
2023-05-21T01:34:53.955Z,2.20
2023-05-21T01:37:50.022Z,1.90
2023-05-21T01:40:24.077Z,2.65
2023-05-21T01:42:51.613Z,1.40
2023-05-21T01:45:18.390Z,1.73
2023-05-21T01:47:49.735Z,3.35
2023-05-21T01:50:18.456Z,1.65
2023-05-21T01:52:58.594Z,1.55
2023-05-21T01:55:25.405Z,2.15
2023-05-21T01:57:53.510Z,2.67
2023-05-21T02:00:24.218Z,2.80
2023-05-21T02:02:51.790Z,2.13
2023-05-21T02:05:18.543Z,3.53
2023-05-21T02:07:46.132Z,2.00
2023-05-21T02:10:13.022Z,3.17
2023-05-21T02:12:39.717Z,2.05
2023-05-21T02:15:07.674Z,3.35
2023-05-21T02:17:34.392Z,1.83
2023-05-21T02:20:13.607Z,2.00
2023-05-21T02:22:41.617Z,2.08
2023-05-21T02:25:09.294Z,2.67
2023-05-21T02:27:36.726Z,2.83
2023-05-21T02:30:04.843Z,2.28
2023-05-21T02:32:34.985Z,2.05
2023-05-21T02:35:04.485Z,2.38
2023-05-21T02:37:34.657Z,1.92
2023-05-21T02:40:03.576Z,1.98
2023-05-21T02:42:30.405Z,2.58
2023-05-21T02:44:57.016Z,3.22
2023-05-21T02:47:23.944Z,2.70
2023-05-21T02:49:52.705Z,1.88
2023-05-21T02:52:20.359Z,1.92
2023-05-21T02:54:47.496Z,2.33
2023-05-21T02:57:14.124Z,2.10
2023-05-21T02:59:40.701Z,3.35
2023-05-21T03:02:09.766Z,3.83
2023-05-21T03:04:39.234Z,1.50
2023-05-21T03:07:06.295Z,1.80
2023-05-21T03:09:32.909Z,2.30
2023-05-21T03:11:59.495Z,2.80
2023-05-21T03:14:26.101Z,2.25
2023-05-21T03:16:52.761Z,2.40
2023-05-21T03:19:20.877Z,2.28
2023-05-21T03:21:49.081Z,2.00
2023-05-21T03:24:17.244Z,1.88
2023-05-21T03:26:43.843Z,2.75
2023-05-21T03:29:10.432Z,1.85
2023-05-21T03:31:37.078Z,3.28
2023-05-21T03:34:03.682Z,2.17
2023-05-21T03:36:35.627Z,2.17
2023-05-21T03:39:02.235Z,2.00
2023-05-21T03:41:28.818Z,2.70
2023-05-21T03:43:55.867Z,2.22
2023-05-21T03:46:22.517Z,2.97
2023-05-21T03:48:49.749Z,2.35
2023-05-21T03:51:18.059Z,2.67
2023-05-21T03:53:44.672Z,1.30
2023-05-21T03:56:11.254Z,2.70
2023-05-21T03:58:39.270Z,4.68
2023-05-21T04:01:06.142Z,3.00
2023-05-21T04:03:36.712Z,1.33
2023-05-21T04:06:04.626Z,3.30
2023-05-21T04:08:31.246Z,1.77
2023-05-21T04:10:57.902Z,1.75
2023-05-21T04:13:24.494Z,2.53
2023-05-21T04:15:51.157Z,2.33
2023-05-21T04:18:17.861Z,2.35
2023-05-21T04:20:44.496Z,2.47
2023-05-21T04:23:11.127Z,2.40
2023-05-21T04:25:38.716Z,1.77
2023-05-21T04:28:05.300Z,3.08
2023-05-21T04:30:35.556Z,2.58
2023-05-21T04:33:03.182Z,2.50
2023-05-21T04:35:29.865Z,2.33
2023-05-21T04:37:56.741Z,1.75
2023-05-21T04:40:24.442Z,3.60
2023-05-21T04:42:51.318Z,2.17
2023-05-21T04:45:18.023Z,2.70
2023-05-21T04:47:44.661Z,2.70
2023-05-21T04:50:11.923Z,3.78
2023-05-21T04:52:40.317Z,1.75
2023-05-21T04:55:07.923Z,2.85
2023-05-21T04:57:35.201Z,2.90
2023-05-21T05:00:01.977Z,1.90
2023-05-21T05:02:28.627Z,2.67
2023-05-21T05:04:55.389Z,2.42
2023-05-21T05:07:25.088Z,1.88
2023-05-21T05:09:51.704Z,1.63
2023-05-21T05:12:18.324Z,2.92
2023-05-21T05:14:44.967Z,3.65
2023-05-21T05:17:14.662Z,2.92
2023-05-21T05:19:41.273Z,4.38
2023-05-21T05:22:07.838Z,2.30
2023-05-21T05:24:34.421Z,4.68
2023-05-21T05:27:01.048Z,6.30
2023-05-21T05:29:28.457Z,7.28
2023-05-21T05:31:55.086Z,8.43
2023-05-21T05:34:23.253Z,7.95
2023-05-21T05:36:49.903Z,6.93
2023-05-21T05:39:16.623Z,7.53
2023-05-21T05:41:43.248Z,8.45
2023-05-21T05:44:11.006Z,8.25
2023-05-21T05:46:37.906Z,6.45
2023-05-21T05:49:04.631Z,6.50
2023-05-21T05:51:31.689Z,4.68
2023-05-21T05:53:58.365Z,4.97
2023-05-21T05:56:25.012Z,6.00
2023-05-21T05:58:51.585Z,5.53
2023-05-21T06:01:19.242Z,4.45
2023-05-21T06:03:46.118Z,5.38
2023-05-21T06:06:13.190Z,5.35
2023-05-21T06:08:40.716Z,5.90
2023-05-21T06:11:07.354Z,5.90
2023-05-21T06:13:33.966Z,4.22
2023-05-21T06:16:00.641Z,4.72
2023-05-21T06:18:30.132Z,6.53
2023-05-21T06:21:00.999Z,4.82
2023-05-21T06:23:36.537Z,5.22
2023-05-21T06:26:05.401Z,5.00
2023-05-21T06:28:32.049Z,5.00
2023-05-21T06:30:58.739Z,5.35
2023-05-21T06:33:28.314Z,7.30
2023-05-21T06:36:30.026Z,2.53
2023-05-21T06:38:57.169Z,5.32
2023-05-21T06:41:26.755Z,4.05
2023-05-21T06:43:54.806Z,3.38
2023-05-21T06:46:21.564Z,3.53
2023-05-21T06:48:52.519Z,3.40
2023-05-21T06:51:19.106Z,3.42
2023-05-21T06:53:45.736Z,4.60
2023-05-21T06:56:13.080Z,4.35
2023-05-21T06:58:39.704Z,5.32
2023-05-21T07:01:08.974Z,6.75
2023-05-21T07:03:38.611Z,18.83
2023-05-21T07:06:08.233Z,18.25
2023-05-21T07:08:46.117Z,25.55
2023-05-21T07:11:12.697Z,23.25
2023-05-21T07:13:39.276Z,20.60
2023-05-21T07:16:06.276Z,22.50
2023-05-21T07:18:35.690Z,27.90
2023-05-21T07:21:03.081Z,23.95
2023-05-21T07:23:29.689Z,19.75
2023-05-21T07:25:56.306Z,21.77
2023-05-21T07:28:22.913Z,21.13
2023-05-21T07:30:49.547Z,21.17
2023-05-21T07:33:17.903Z,20.50
2023-05-21T07:35:45.300Z,21.00
2023-05-21T07:38:11.908Z,20.58
2023-05-21T07:40:38.488Z,20.85
2023-05-21T07:43:05.087Z,17.38
2023-05-21T07:45:31.703Z,22.15
2023-05-21T07:47:58.441Z,17.70
2023-05-21T07:50:25.724Z,17.10
2023-05-21T07:52:52.377Z,13.77
2023-05-21T07:55:24.589Z,19.13
2023-05-21T07:57:54.676Z,14.68
2023-05-21T08:00:23.715Z,16.52
2023-05-21T08:02:50.502Z,16.67
2023-05-21T08:05:17.197Z,14.70
2023-05-21T08:07:53.003Z,14.02
2023-05-21T08:10:23.044Z,12.63
2023-05-21T08:12:49.645Z,14.68
2023-05-21T08:15:16.247Z,15.73
2023-05-21T08:17:42.876Z,16.23
2023-05-21T08:20:10.367Z,13.40
2023-05-21T08:22:40.055Z,15.13
2023-05-21T08:25:11.229Z,16.92
2023-05-21T08:27:38.226Z,12.93
2023-05-21T08:30:05.923Z,10.98
2023-05-21T08:32:32.542Z,15.75
2023-05-21T08:35:00.753Z,13.13
2023-05-21T08:37:27.385Z,12.15
2023-05-21T08:39:53.984Z,9.95
2023-05-21T08:42:39.558Z,10.98
2023-05-21T08:45:12.259Z,13.68
2023-05-21T08:47:42.069Z,11.70
2023-05-21T08:50:13.546Z,11.82
2023-05-21T08:52:40.977Z,12.35
2023-05-21T08:55:12.479Z,11.57
2023-05-21T08:57:43.651Z,11.45
2023-05-21T09:00:11.879Z,11.05
2023-05-21T09:02:40.929Z,11.52
2023-05-21T09:05:09.610Z,11.85
2023-05-21T09:07:44.573Z,10.27
2023-05-21T09:10:13.460Z,10.00
2023-05-21T09:12:40.439Z,13.05
2023-05-21T09:15:07.586Z,9.43
2023-05-21T09:17:34.272Z,8.52
2023-05-21T09:20:17.544Z,9.40
2023-05-21T09:22:45.625Z,8.85
2023-05-21T09:25:17.072Z,10.20
2023-05-21T09:27:43.875Z,9.98
2023-05-21T09:30:12.721Z,8.07
2023-05-21T09:32:40.127Z,8.25
2023-05-21T09:35:15.727Z,9.65
2023-05-21T09:37:45.642Z,10.77
2023-05-21T09:40:19.864Z,8.32
2023-05-21T09:42:49.983Z,11.25
2023-05-21T09:45:20.385Z,5.45
2023-05-21T09:47:48.497Z,6.90
2023-05-21T09:50:23.005Z,6.63
2023-05-21T09:52:52.792Z,6.95
2023-05-21T09:55:23.049Z,9.10
2023-05-21T09:57:51.019Z,5.45
2023-05-21T10:00:19.496Z,7.95
2023-05-21T10:02:47.512Z,6.03
2023-05-21T10:05:16.290Z,6.63
2023-05-21T10:08:04.452Z,7.22
2023-05-21T10:10:32.199Z,6.60
2023-05-21T10:12:59.473Z,7.60
2023-05-21T10:15:28.327Z,7.03
2023-05-21T10:17:55.812Z,7.22
2023-05-21T10:20:22.715Z,5.38
2023-05-21T10:22:50.710Z,5.97
2023-05-21T10:25:17.679Z,7.35
2023-05-21T10:27:46.744Z,7.25
2023-05-21T10:30:14.332Z,4.85
2023-05-21T10:32:42.226Z,4.32
2023-05-21T10:35:16.343Z,7.03
2023-05-21T10:37:47.180Z,4.95
2023-05-21T10:40:13.882Z,5.80
2023-05-21T10:42:57.327Z,6.00
2023-05-21T10:46:12.213Z,6.35
2023-05-21T10:49:17.131Z,7.50
2023-05-21T10:52:09.338Z,10.85
2023-05-21T10:54:49.816Z,7.57
2023-05-21T10:57:42.638Z,5.47
2023-05-21T11:00:11.266Z,4.53
2023-05-21T11:02:38.152Z,6.88
2023-05-21T11:05:05.334Z,5.45
2023-05-21T11:07:56.273Z,4.70
2023-05-21T11:10:40.780Z,4.18
2023-05-21T11:13:17.234Z,5.05
2023-05-21T11:15:58.823Z,7.93
2023-05-21T11:18:40.499Z,4.53
2023-05-21T11:21:12.021Z,6.15
2023-05-21T11:23:50.925Z,4.68
2023-05-21T11:26:18.695Z,4.55
2023-05-21T11:28:45.429Z,5.30
2023-05-21T11:31:29.296Z,4.13
2023-05-21T11:34:11.233Z,4.68
2023-05-21T11:36:38.732Z,6.00
2023-05-21T11:39:12.541Z,5.43
2023-05-21T11:42:03.122Z,5.38
2023-05-21T11:44:40.239Z,5.72
2023-05-21T11:47:08.622Z,3.97
2023-05-21T11:49:35.724Z,4.00
2023-05-21T11:52:03.511Z,5.00
2023-05-21T11:54:36.010Z,4.30
2023-05-21T11:57:11.443Z,4.43
2023-05-21T11:59:38.904Z,4.53
2023-05-21T12:02:05.598Z,4.53
2023-05-21T12:04:33.094Z,4.35
2023-05-21T12:07:02.627Z,4.60
2023-05-21T12:09:29.246Z,4.13
2023-05-21T12:11:55.915Z,5.80
2023-05-21T12:14:23.222Z,4.22
2023-05-21T12:16:50.076Z,4.28
2023-05-21T12:19:18.497Z,5.00
2023-05-21T12:21:45.331Z,5.13
2023-05-21T12:24:11.946Z,3.67
2023-05-21T12:26:39.386Z,4.88
2023-05-21T12:29:06.243Z,4.75
2023-05-21T12:31:33.015Z,6.47
2023-05-21T12:34:03.080Z,4.18
2023-05-21T12:36:31.847Z,3.92
2023-05-21T12:38:58.525Z,3.72
2023-05-21T12:41:25.225Z,3.63
2023-05-21T12:43:52.024Z,4.15
2023-05-21T12:46:19.010Z,4.22
2023-05-21T12:49:04.243Z,4.35
2023-05-21T12:51:42.632Z,4.18
2023-05-21T12:54:13.105Z,4.60
2023-05-21T12:56:46.741Z,4.15
2023-05-21T12:59:15.492Z,3.90
2023-05-21T13:01:42.189Z,6.80
2023-05-21T13:04:08.846Z,4.28
2023-05-21T13:06:44.371Z,4.88
2023-05-21T13:09:11.018Z,4.57
2023-05-21T13:11:37.604Z,4.28
2023-05-21T13:14:04.206Z,3.10
2023-05-21T13:16:30.962Z,4.53
2023-05-21T13:18:57.653Z,3.15
2023-05-21T13:21:24.276Z,5.60
2023-05-21T13:23:50.854Z,6.45
2023-05-21T13:26:17.474Z,6.25
2023-05-21T13:28:44.064Z,4.32
2023-05-21T13:31:12.166Z,7.18
2023-05-21T13:33:38.967Z,5.03
2023-05-21T13:36:05.827Z,5.85
2023-05-21T13:38:32.485Z,4.35
2023-05-21T13:40:59.123Z,4.70
2023-05-21T13:43:25.710Z,8.70
2023-05-21T13:45:52.614Z,7.45
2023-05-21T13:48:19.300Z,9.43
2023-05-21T13:50:46.102Z,7.85
2023-05-21T13:53:12.689Z,9.00
2023-05-21T13:55:39.349Z,7.03
2023-05-21T13:58:06.067Z,12.70
2023-05-21T14:00:32.657Z,8.38
2023-05-21T14:02:59.462Z,11.18
2023-05-21T14:05:27.000Z,10.88
2023-05-21T14:07:53.687Z,16.45
2023-05-21T14:10:20.681Z,9.45
2023-05-21T14:12:47.347Z,9.55
2023-05-21T14:15:14.017Z,8.60
2023-05-21T14:17:42.348Z,10.35
2023-05-21T14:20:09.951Z,11.95
2023-05-21T14:22:36.619Z,7.32
2023-05-21T14:25:03.478Z,11.70
2023-05-21T14:27:30.413Z,11.23
2023-05-21T14:29:57.030Z,8.25
2023-05-21T14:32:23.707Z,10.57
2023-05-21T14:34:50.526Z,5.97
2023-05-21T14:37:17.459Z,11.55
2023-05-21T14:39:44.200Z,6.32
2023-05-21T14:42:13.260Z,9.20
2023-05-21T14:44:39.862Z,8.80
2023-05-21T14:47:06.462Z,8.30
2023-05-21T14:49:33.178Z,6.68
2023-05-21T14:51:59.880Z,9.75
2023-05-21T14:54:26.495Z,8.70
2023-05-21T14:56:54.198Z,7.63
2023-05-21T14:59:20.931Z,7.00
2023-05-21T15:01:47.637Z,6.60
2023-05-21T15:04:14.486Z,6.65
2023-05-21T15:06:41.141Z,8.38
2023-05-21T15:09:07.817Z,9.70
2023-05-21T15:11:34.420Z,7.80
2023-05-21T15:14:01.015Z,5.88
2023-05-21T15:16:27.655Z,7.20
2023-05-21T15:18:54.426Z,6.22
2023-05-21T15:21:21.073Z,6.07
2023-05-21T15:23:47.959Z,6.22
2023-05-21T15:26:14.647Z,7.03
2023-05-21T15:28:41.386Z,8.27
2023-05-21T15:31:07.978Z,8.18
2023-05-21T15:33:34.697Z,9.38
2023-05-21T15:36:01.397Z,7.20
2023-05-21T15:38:28.078Z,8.90
2023-05-21T15:40:55.262Z,7.03
2023-05-21T15:43:21.890Z,6.93
2023-05-21T15:45:48.558Z,8.90
2023-05-21T15:48:15.246Z,6.70
2023-05-21T15:50:41.906Z,7.65
2023-05-21T15:53:10.679Z,8.13
2023-05-21T15:55:37.489Z,6.78
2023-05-21T15:58:05.204Z,5.63
2023-05-21T16:00:31.868Z,7.45
2023-05-21T16:02:58.526Z,7.43
2023-05-21T16:05:26.096Z,6.90
2023-05-21T16:07:52.668Z,9.55
2023-05-21T16:10:19.299Z,7.53
2023-05-21T16:12:45.883Z,7.35
2023-05-21T16:15:12.508Z,6.55
2023-05-21T16:17:39.123Z,6.45
2023-05-21T16:20:07.542Z,6.68
2023-05-21T16:22:34.133Z,8.32
2023-05-21T16:25:00.788Z,6.88
2023-05-21T16:27:27.440Z,8.20
2023-05-21T16:29:54.103Z,11.43
2023-05-21T16:32:22.084Z,7.47
2023-05-21T16:34:48.824Z,7.30
2023-05-21T16:37:15.492Z,9.38
2023-05-21T16:39:42.093Z,7.65
2023-05-21T16:42:08.711Z,8.50
2023-05-21T16:44:37.035Z,7.18
2023-05-21T16:47:04.402Z,9.02
2023-05-21T16:49:31.019Z,7.32
2023-05-21T16:51:57.749Z,8.43
2023-05-21T16:54:24.396Z,7.10
2023-05-21T16:56:50.987Z,8.27
2023-05-21T16:59:17.599Z,6.70
2023-05-21T17:01:44.212Z,6.95
2023-05-21T17:04:11.129Z,6.15
2023-05-21T17:06:37.755Z,8.18
2023-05-21T17:09:04.344Z,8.07
2023-05-21T17:11:31.001Z,7.65
2023-05-21T17:13:57.626Z,9.23
2023-05-21T17:16:25.168Z,7.03
2023-05-21T17:18:51.908Z,7.13
2023-05-21T17:21:21.817Z,7.63
2023-05-21T17:23:48.395Z,8.32
2023-05-21T17:26:15.215Z,11.40
2023-05-21T17:28:41.812Z,8.95
2023-05-21T17:31:08.584Z,9.15
2023-05-21T17:33:36.366Z,6.72
2023-05-21T17:36:09.671Z,10.02
2023-05-21T17:41:02.892Z,6.32
2023-05-21T17:43:31.835Z,6.97
2023-05-21T17:45:58.538Z,10.10
2023-05-21T17:48:25.186Z,9.40
2023-05-21T17:50:51.789Z,9.10
2023-05-21T17:53:18.444Z,7.47
2023-05-21T17:55:45.048Z,10.35
2023-05-21T17:58:11.699Z,8.65
2023-05-21T18:00:38.370Z,9.73
2023-05-21T18:03:05.257Z,9.10
2023-05-21T18:05:31.908Z,6.70
2023-05-21T18:08:01.117Z,8.07
2023-05-21T18:10:27.800Z,9.55
2023-05-21T18:12:54.394Z,7.90
2023-05-21T18:15:21.015Z,8.00
2023-05-21T18:17:47.968Z,8.13
2023-05-21T18:20:15.043Z,8.90
2023-05-21T18:22:41.755Z,7.68
2023-05-21T18:25:09.068Z,8.80
2023-05-21T18:27:35.891Z,8.15
2023-05-21T18:30:05.111Z,7.78
2023-05-21T18:32:33.035Z,5.90
2023-05-21T18:34:59.713Z,8.10
2023-05-21T18:37:29.507Z,6.95
2023-05-21T18:39:56.130Z,7.57
2023-05-21T18:42:22.713Z,8.43
2023-05-21T18:44:51.239Z,8.57
2023-05-21T18:47:17.882Z,7.35
2023-05-21T18:49:44.472Z,7.47
2023-05-21T18:52:11.062Z,7.63
2023-05-21T18:54:37.709Z,7.68
2023-05-21T18:57:04.429Z,7.82
2023-05-21T18:59:31.431Z,7.88
2023-05-21T19:01:58.153Z,11.30
2023-05-21T19:04:25.166Z,6.68
2023-05-21T19:06:51.747Z,9.55
2023-05-21T19:09:18.321Z,8.25
2023-05-21T19:11:47.204Z,9.50
2023-05-21T19:14:13.842Z,6.25
2023-05-21T19:16:40.682Z,10.02
2023-05-21T19:19:07.485Z,7.40
2023-05-21T19:21:34.109Z,8.52
2023-05-21T19:24:02.995Z,6.47
2023-05-21T19:26:30.823Z,7.47
2023-05-21T19:28:57.468Z,8.60
2023-05-21T19:31:25.262Z,8.07
2023-05-21T19:33:52.937Z,6.53
2023-05-21T19:36:21.564Z,7.88
2023-05-21T19:38:49.366Z,7.53
2023-05-21T19:41:19.955Z,6.68
2023-05-21T19:43:46.566Z,7.47
2023-05-21T19:46:14.368Z,7.90
2023-05-21T19:48:42.721Z,7.15
2023-05-21T19:51:09.313Z,7.68
2023-05-21T19:53:36.176Z,6.32
2023-05-21T19:56:02.836Z,6.20
2023-05-21T19:58:30.401Z,6.75
2023-05-21T20:00:59.236Z,7.90
2023-05-21T20:03:27.307Z,6.95
2023-05-21T20:05:54.237Z,6.28
2023-05-21T20:08:21.198Z,6.85
2023-05-21T20:10:50.523Z,6.60
2023-05-21T20:13:18.182Z,6.88
2023-05-21T20:15:45.659Z,7.78
2023-05-21T20:18:12.801Z,7.78
2023-05-21T20:20:41.223Z,8.30
2023-05-21T20:23:08.287Z,6.53
2023-05-21T20:25:34.891Z,6.05
2023-05-21T20:28:02.664Z,6.70
2023-05-21T20:30:32.965Z,6.75
2023-05-21T20:33:04.693Z,7.55
2023-05-21T20:35:31.353Z,7.40
2023-05-21T20:38:02.182Z,8.57
2023-05-21T20:40:28.873Z,6.72
2023-05-21T20:42:55.470Z,8.15
2023-05-21T20:45:22.104Z,6.93
2023-05-21T20:47:49.920Z,6.90
2023-05-21T20:50:17.974Z,7.00
2023-05-21T20:52:47.133Z,7.97
2023-05-21T20:55:14.775Z,7.32
2023-05-21T20:57:41.626Z,8.82
2023-05-21T21:00:10.647Z,6.65
2023-05-21T21:02:41.525Z,7.75
2023-05-21T21:05:10.446Z,6.80
2023-05-21T21:07:37.724Z,7.30
2023-05-21T21:10:05.164Z,7.25
2023-05-21T21:12:31.770Z,7.40
2023-05-21T21:14:58.416Z,6.65
2023-05-21T21:17:25.047Z,6.00
2023-05-21T21:19:51.668Z,6.90
2023-05-21T21:22:18.565Z,7.93
2023-05-21T21:24:45.606Z,6.13
2023-05-21T21:27:12.349Z,6.43
2023-05-21T21:29:39.009Z,6.68
2023-05-21T21:32:06.149Z,7.70
2023-05-21T21:34:32.825Z,10.25
2023-05-21T21:37:11.555Z,8.60
2023-05-21T21:39:38.221Z,8.55
2023-05-21T21:42:05.081Z,8.25
2023-05-21T21:44:31.710Z,7.65
2023-05-21T21:47:03.884Z,6.53
2023-05-21T21:49:30.496Z,5.93
2023-05-21T21:52:00.008Z,6.35
2023-05-21T21:54:31.801Z,8.15
2023-05-21T21:57:01.515Z,6.72
2023-05-21T21:59:28.158Z,9.95
2023-05-21T22:01:54.841Z,8.18
2023-05-21T22:04:21.448Z,7.43
2023-05-21T22:06:49.689Z,8.15
2023-05-21T22:09:17.559Z,6.57
2023-05-21T22:11:44.224Z,10.38
2023-05-21T22:14:11.649Z,8.00
2023-05-21T22:16:38.372Z,8.05
2023-05-21T22:19:05.051Z,6.25
2023-05-21T22:21:33.135Z,7.13
2023-05-21T22:24:00.198Z,6.45
2023-05-21T22:26:26.793Z,8.60
2023-05-21T22:28:53.380Z,8.45
2023-05-21T22:31:20.052Z,7.18
2023-05-21T22:33:49.122Z,7.63
2023-05-21T22:36:18.354Z,7.22
2023-05-21T22:38:44.970Z,6.35
2023-05-21T22:41:11.785Z,7.43
2023-05-21T22:43:38.418Z,9.77
2023-05-21T22:46:05.127Z,7.50
2023-05-21T22:48:31.744Z,6.30
2023-05-21T22:50:58.428Z,7.00
2023-05-21T22:53:25.763Z,6.95
2023-05-21T22:55:52.390Z,6.35
2023-05-21T22:58:19.267Z,6.38
2023-05-21T23:00:47.360Z,6.78
2023-05-21T23:03:14.076Z,6.55
2023-05-21T23:05:40.933Z,6.07
2023-05-21T23:08:07.844Z,8.90
2023-05-21T23:10:35.482Z,6.75
2023-05-21T23:13:02.151Z,7.15
2023-05-21T23:15:29.794Z,6.75
2023-05-21T23:18:09.081Z,8.05
2023-05-21T23:20:37.025Z,7.20
2023-05-21T23:23:06.557Z,7.65
2023-05-21T23:25:34.091Z,7.32
2023-05-21T23:28:01.472Z,7.80
2023-05-21T23:30:28.159Z,8.07
2023-05-21T23:32:54.813Z,6.78
2023-05-21T23:35:21.446Z,6.47
2023-05-21T23:37:48.023Z,7.35
2023-05-21T23:40:14.724Z,8.93
2023-05-21T23:42:41.385Z,6.00
2023-05-21T23:45:08.122Z,7.25
2023-05-21T23:47:37.720Z,7.32
2023-05-21T23:50:09.231Z,7.63
2023-05-21T23:52:41.959Z,7.45
2023-05-21T23:55:09.911Z,7.75
2023-05-21T23:57:36.493Z,6.40
